createdAt,value
2022-08-22T00:03:10.387Z,17.13
2022-08-22T00:03:11.356Z,18.37
2022-08-22T00:03:30.318Z,20.57
2022-08-22T00:06:20.952Z,20.07
2022-08-22T00:09:23.277Z,19.93
2022-08-22T00:12:16.927Z,16.20
2022-08-22T00:15:06.399Z,18.30
2022-08-22T00:17:57.092Z,17.80
2022-08-22T00:20:46.450Z,17.83
2022-08-22T00:23:36.576Z,17.33
2022-08-22T00:26:30.409Z,17.17
2022-08-22T00:29:16.656Z,17.43
2022-08-22T00:32:10.313Z,16.37
2022-08-22T00:35:00.189Z,19.40
2022-08-22T00:37:46.716Z,21.27
2022-08-22T00:40:54.248Z,18.60
2022-08-22T00:44:18.466Z,20.07
2022-08-22T00:47:13.000Z,21.57
2022-08-22T00:50:29.090Z,23.87
2022-08-22T00:53:29.365Z,20.80
2022-08-22T00:56:35.277Z,22.60
2022-08-22T00:59:35.542Z,23.67
2022-08-22T01:02:33.056Z,26.90
2022-08-22T01:05:35.969Z,26.97
2022-08-22T01:08:40.284Z,27.87
2022-08-22T01:11:37.631Z,31.03
2022-08-22T01:14:34.289Z,27.17
2022-08-22T01:18:02.614Z,30.43
2022-08-22T01:21:16.135Z,27.40
2022-08-22T01:24:33.903Z,30.23
2022-08-22T01:28:11.236Z,30.40
2022-08-22T01:31:39.706Z,32.47
2022-08-22T01:34:57.906Z,32.93
2022-08-22T01:37:59.031Z,26.27
2022-08-22T01:41:12.982Z,25.00
2022-08-22T01:44:09.490Z,28.87
2022-08-22T01:46:59.896Z,28.43
2022-08-22T01:49:48.070Z,31.57
2022-08-22T01:52:38.975Z,27.40
2022-08-22T01:55:31.381Z,28.07
2022-08-22T01:58:19.122Z,29.90
2022-08-22T02:01:15.158Z,25.77
2022-08-22T02:04:05.763Z,26.10
2022-08-22T02:06:59.756Z,27.43
2022-08-22T02:09:53.437Z,25.90
2022-08-22T02:12:44.004Z,24.27
2022-08-22T02:15:37.109Z,35.53
2022-08-22T02:18:27.295Z,25.70
2022-08-22T02:21:17.136Z,30.40
2022-08-22T02:24:04.294Z,24.63
2022-08-22T02:27:04.793Z,27.53
2022-08-22T02:29:54.996Z,29.07
2022-08-22T02:32:50.545Z,29.80
2022-08-22T02:35:38.901Z,28.07
2022-08-22T02:38:29.127Z,31.77
2022-08-22T02:41:23.112Z,32.93
2022-08-22T02:44:24.156Z,25.27
2022-08-22T02:47:13.385Z,32.10
2022-08-22T02:50:07.089Z,28.20
2022-08-22T02:53:02.120Z,30.20
2022-08-22T02:55:54.653Z,27.33
2022-08-22T02:58:45.884Z,27.97
2022-08-22T03:01:42.568Z,22.77
2022-08-22T03:04:47.296Z,27.33
2022-08-22T03:07:43.098Z,25.27
2022-08-22T03:10:31.754Z,26.70
2022-08-22T03:13:20.256Z,33.47
2022-08-22T03:16:11.850Z,38.43
2022-08-22T03:19:04.593Z,38.73
2022-08-22T03:21:56.975Z,35.87
2022-08-22T03:24:45.504Z,35.70
2022-08-22T03:27:35.703Z,35.30
2022-08-22T03:30:22.973Z,43.87
2022-08-22T03:33:19.039Z,39.57
2022-08-22T03:36:10.772Z,42.33
2022-08-22T03:39:16.646Z,40.97
2022-08-22T03:42:16.014Z,41.10
2022-08-22T03:45:28.694Z,39.53
2022-08-22T03:48:39.422Z,40.33
2022-08-22T03:51:32.702Z,44.90
2022-08-22T03:54:51.720Z,39.77
2022-08-22T03:58:13.630Z,35.63
2022-08-22T04:01:50.297Z,35.17
2022-08-22T04:05:09.739Z,34.23
2022-08-22T04:08:37.454Z,40.67
2022-08-22T04:12:09.052Z,35.10
2022-08-22T04:15:18.500Z,38.53
2022-08-22T04:18:19.512Z,30.80
2022-08-22T04:21:30.733Z,26.10
2022-08-22T04:24:28.963Z,40.13
2022-08-22T04:27:22.118Z,25.83
2022-08-22T04:30:12.101Z,27.50
2022-08-22T04:33:06.602Z,32.87
2022-08-22T04:36:03.671Z,29.60
2022-08-22T04:38:53.878Z,27.63
2022-08-22T04:41:48.313Z,25.93
2022-08-22T04:44:39.750Z,29.90
2022-08-22T04:47:31.637Z,29.73
2022-08-22T04:50:21.238Z,32.13
2022-08-22T04:53:15.127Z,33.80
2022-08-22T04:56:07.824Z,27.00
2022-08-22T04:58:58.213Z,28.53
2022-08-22T05:01:46.814Z,32.27
2022-08-22T05:04:33.460Z,34.37
2022-08-22T05:07:20.880Z,32.03
2022-08-22T05:10:11.778Z,25.87
2022-08-22T05:13:00.517Z,28.80
2022-08-22T05:15:48.939Z,43.43
2022-08-22T05:18:36.626Z,34.30
2022-08-22T05:21:27.146Z,35.07
2022-08-22T05:24:15.541Z,37.37
2022-08-22T05:27:07.174Z,33.83
2022-08-22T05:29:53.820Z,32.77
2022-08-22T05:32:47.651Z,40.50
2022-08-22T05:35:37.753Z,37.50
2022-08-22T05:38:27.636Z,34.97
2022-08-22T05:41:13.240Z,33.03
2022-08-22T05:43:56.849Z,31.57
2022-08-22T05:46:43.329Z,38.47
2022-08-22T05:49:36.047Z,39.50
2022-08-22T05:52:34.794Z,32.23
2022-08-22T05:55:26.301Z,36.70
2022-08-22T05:58:36.990Z,33.37
2022-08-22T06:01:26.515Z,42.03
2022-08-22T06:04:17.457Z,43.00
2022-08-22T06:07:05.263Z,34.90
2022-08-22T06:10:09.585Z,38.40
2022-08-22T06:12:59.149Z,39.83
2022-08-22T06:15:49.750Z,40.77
2022-08-22T06:18:33.969Z,34.70
2022-08-22T06:21:22.273Z,31.20
2022-08-22T06:24:10.785Z,31.50
2022-08-22T06:26:58.013Z,34.77
2022-08-22T06:29:46.113Z,29.80
2022-08-22T06:32:58.921Z,33.37
2022-08-22T06:35:54.407Z,30.43
2022-08-22T06:38:55.551Z,28.00
2022-08-22T06:41:47.548Z,29.77
2022-08-22T06:44:33.961Z,32.27
2022-08-22T06:47:20.468Z,30.93
2022-08-22T06:50:13.919Z,28.20
2022-08-22T06:53:02.419Z,32.10
2022-08-22T06:55:50.639Z,35.87
2022-08-22T06:58:40.322Z,32.53
2022-08-22T07:01:26.425Z,29.47
2022-08-22T07:04:11.358Z,25.73
2022-08-22T07:06:57.016Z,30.87
2022-08-22T07:09:42.473Z,25.83
2022-08-22T07:12:30.720Z,23.30
2022-08-22T07:15:34.478Z,22.80
2022-08-22T07:18:19.461Z,22.83
2022-08-22T07:21:08.283Z,24.17
2022-08-22T07:23:53.214Z,24.33
2022-08-22T07:26:45.781Z,31.67
2022-08-22T07:29:36.577Z,28.13
2022-08-22T07:32:28.991Z,21.63
2022-08-22T07:35:16.553Z,22.13
2022-08-22T07:38:08.143Z,24.17
2022-08-22T07:41:02.793Z,20.60
2022-08-22T07:43:51.640Z,18.57
2022-08-22T07:46:38.323Z,28.83
2022-08-22T07:49:27.186Z,23.20
2022-08-22T07:52:13.745Z,20.53
2022-08-22T07:55:02.891Z,23.63
2022-08-22T07:57:50.649Z,21.33
2022-08-22T08:00:34.479Z,21.60
2022-08-22T08:03:18.504Z,19.43
2022-08-22T08:06:04.036Z,17.27
2022-08-22T08:08:47.282Z,18.77
2022-08-22T08:11:35.620Z,19.13
2022-08-22T08:14:22.026Z,20.13
2022-08-22T08:20:13.993Z,16.00
2022-08-22T08:23:00.186Z,21.20
2022-08-22T08:25:54.030Z,19.60
2022-08-22T08:28:42.647Z,20.90
2022-08-22T08:31:32.758Z,21.63
2022-08-22T08:34:23.707Z,36.27
2022-08-22T08:37:15.550Z,23.23
2022-08-22T08:40:02.804Z,17.07
2022-08-22T08:43:29.956Z,19.13
2022-08-22T08:46:35.941Z,18.43
2022-08-22T08:49:44.969Z,17.93
2022-08-22T08:53:07.273Z,21.73
2022-08-22T08:55:59.601Z,19.90
2022-08-22T08:58:50.961Z,17.30
2022-08-22T09:01:53.354Z,14.80
2022-08-22T09:05:15.708Z,16.53
2022-08-22T09:08:27.691Z,19.50
2022-08-22T09:11:32.329Z,18.90
2022-08-22T09:14:50.609Z,19.83
2022-08-22T09:18:10.703Z,16.07
2022-08-22T09:21:35.296Z,19.10
2022-08-22T09:24:38.962Z,17.37
2022-08-22T09:27:34.215Z,16.33
2022-08-22T09:33:31.445Z,17.33
2022-08-22T09:36:21.281Z,15.13
2022-08-22T09:39:15.151Z,21.90
2022-08-22T09:40:15.634Z,15.67
2022-08-22T09:42:08.190Z,12.90
2022-08-22T09:45:00.690Z,15.20
2022-08-22T09:47:54.170Z,16.83
2022-08-22T09:50:54.674Z,14.65
2022-08-22T09:53:53.106Z,13.38
2022-08-22T09:56:40.376Z,14.68
2022-08-22T09:59:33.570Z,24.70
2022-08-22T10:02:31.676Z,11.98
2022-08-22T10:05:35.183Z,15.48
2022-08-22T10:08:38.381Z,12.05
2022-08-22T10:11:29.142Z,15.27
2022-08-22T10:14:22.339Z,12.38
2022-08-22T10:17:21.722Z,13.73
2022-08-22T10:20:21.263Z,19.13
2022-08-22T10:23:15.943Z,13.52
2022-08-22T10:26:13.205Z,11.40
2022-08-22T10:29:30.448Z,16.80
2022-08-22T10:32:27.521Z,14.38
2022-08-22T10:35:21.107Z,14.50
2022-08-22T10:38:10.768Z,16.53
2022-08-22T10:41:03.522Z,16.03
2022-08-22T10:44:01.237Z,14.80
2022-08-22T10:46:54.997Z,15.93
2022-08-22T10:49:46.642Z,12.87
2022-08-22T10:52:47.453Z,15.38
2022-08-22T10:55:30.854Z,13.98
2022-08-22T10:58:18.791Z,15.68
2022-08-22T11:01:37.998Z,14.57
2022-08-22T11:04:19.892Z,17.92
2022-08-22T11:07:39.482Z,13.50
2022-08-22T11:10:36.134Z,13.45
2022-08-22T11:13:42.287Z,12.10
2022-08-22T11:16:42.683Z,16.47
2022-08-22T11:19:45.097Z,16.07
2022-08-22T11:22:33.988Z,16.90
2022-08-22T11:25:41.195Z,13.73
2022-08-22T11:29:13.587Z,15.80
2022-08-22T11:32:07.928Z,20.43
2022-08-22T11:34:58.430Z,18.27
2022-08-22T11:37:59.047Z,18.57
2022-08-22T11:40:48.942Z,18.60
2022-08-22T11:43:44.725Z,13.47
2022-08-22T11:46:33.631Z,22.10
2022-08-22T11:49:33.726Z,19.37
2022-08-22T11:52:38.544Z,18.27
2022-08-22T11:55:32.780Z,18.03
2022-08-22T11:58:29.044Z,16.87
2022-08-22T12:01:17.139Z,16.13
2022-08-22T12:04:10.310Z,16.53
2022-08-22T12:07:10.794Z,14.87
2022-08-22T12:09:59.725Z,17.77
2022-08-22T12:12:56.350Z,16.73
2022-08-22T12:15:53.950Z,17.63
2022-08-22T12:19:01.926Z,18.97
2022-08-22T12:22:12.728Z,20.13
2022-08-22T12:25:09.774Z,17.50
2022-08-22T12:28:05.056Z,21.90
2022-08-22T12:31:02.232Z,16.20
2022-08-22T12:34:06.534Z,19.17
2022-08-22T12:37:04.964Z,14.47
2022-08-22T12:40:34.707Z,15.17
2022-08-22T12:43:39.889Z,19.03
2022-08-22T12:46:46.559Z,18.10
2022-08-22T12:49:44.902Z,15.43
2022-08-22T12:52:55.245Z,18.50
2022-08-22T12:56:05.322Z,19.10
2022-08-22T12:59:10.099Z,18.67
2022-08-22T13:02:00.857Z,22.43
2022-08-22T13:04:48.199Z,25.10
2022-08-22T13:07:35.906Z,21.67
2022-08-22T13:10:46.677Z,20.23
2022-08-22T13:13:38.710Z,16.20
2022-08-22T13:16:24.675Z,23.87
2022-08-22T13:19:14.538Z,21.63
2022-08-22T13:22:01.505Z,25.20
2022-08-22T13:24:51.818Z,24.50
2022-08-22T13:27:51.318Z,22.23
2022-08-22T13:30:37.911Z,28.20
2022-08-22T13:33:27.258Z,26.63
2022-08-22T13:36:18.293Z,26.30
2022-08-22T13:39:08.610Z,25.63
2022-08-22T13:41:59.106Z,24.83
2022-08-22T13:44:46.679Z,25.63
2022-08-22T13:47:31.776Z,28.10
2022-08-22T13:50:20.179Z,20.97
2022-08-22T13:53:11.698Z,20.63
2022-08-22T13:56:02.705Z,18.17
2022-08-22T13:58:48.945Z,23.93
2022-08-22T14:01:44.108Z,28.10
2022-08-22T14:04:35.857Z,31.27
2022-08-22T14:07:30.526Z,31.50
2022-08-22T14:10:23.821Z,29.23
2022-08-22T14:13:49.571Z,26.93
2022-08-22T14:16:38.008Z,34.97
2022-08-22T14:19:28.240Z,34.27
2022-08-22T14:22:17.065Z,37.27
2022-08-22T14:25:03.735Z,27.13
2022-08-22T14:28:00.813Z,24.70
2022-08-22T14:31:01.066Z,32.33
2022-08-22T14:33:49.978Z,36.47
2022-08-22T14:36:45.750Z,82.43
2022-08-22T14:39:34.864Z,35.33
2022-08-22T14:42:23.953Z,30.67
2022-08-22T14:45:16.801Z,34.97
2022-08-22T14:48:30.508Z,34.23
2022-08-22T14:51:18.840Z,27.40
2022-08-22T14:54:21.150Z,26.83
2022-08-22T14:57:10.375Z,34.53
2022-08-22T14:59:54.233Z,28.77
2022-08-22T15:02:38.883Z,29.23
2022-08-22T15:05:24.019Z,32.23
2022-08-22T15:08:10.309Z,38.77
2022-08-22T15:11:08.875Z,39.90
2022-08-22T15:14:01.103Z,33.60
2022-08-22T15:16:51.883Z,39.03
2022-08-22T15:19:41.195Z,34.10
2022-08-22T15:22:27.878Z,58.00
2022-08-22T15:25:17.077Z,35.07
2022-08-22T15:28:05.217Z,31.10
2022-08-22T15:31:03.815Z,35.40
2022-08-22T15:33:49.851Z,27.57
2022-08-22T15:36:34.521Z,32.80
2022-08-22T15:39:33.208Z,26.30
2022-08-22T15:42:27.248Z,24.97
2022-08-22T15:45:20.965Z,27.80
2022-08-22T15:48:10.163Z,26.00
2022-08-22T15:50:59.363Z,30.70
2022-08-22T15:54:16.041Z,28.10
2022-08-22T15:57:16.739Z,28.83
2022-08-22T16:00:03.110Z,28.07
2022-08-22T16:03:01.238Z,26.13
2022-08-22T16:05:55.581Z,29.73
2022-08-22T16:08:55.412Z,28.37
2022-08-22T16:11:40.841Z,32.30
2022-08-22T16:14:26.107Z,30.23
2022-08-22T16:17:42.039Z,31.37
2022-08-22T16:20:51.051Z,28.83
2022-08-22T16:24:09.539Z,28.57
2022-08-22T16:26:54.771Z,35.73
2022-08-22T16:29:42.809Z,29.77
2022-08-22T16:32:28.917Z,34.63
2022-08-22T16:35:13.023Z,27.00
2022-08-22T16:37:56.637Z,28.77
2022-08-22T16:40:48.855Z,31.30
2022-08-22T16:43:34.211Z,29.07
2022-08-22T16:46:36.473Z,31.87
2022-08-22T16:49:30.503Z,33.67
2022-08-22T16:53:02.046Z,29.50
2022-08-22T16:55:50.896Z,29.57
2022-08-22T16:59:06.132Z,37.73
2022-08-22T17:02:42.952Z,33.10
2022-08-22T17:05:51.150Z,28.63
2022-08-22T17:08:53.892Z,33.97
2022-08-22T17:11:48.414Z,28.13
2022-08-22T17:14:49.210Z,30.70
2022-08-22T17:17:41.492Z,37.20
2022-08-22T17:20:44.614Z,38.33
2022-08-22T17:23:35.962Z,32.30
2022-08-22T17:26:32.558Z,40.20
2022-08-22T17:29:26.207Z,37.70
2022-08-22T17:32:22.239Z,32.53
2022-08-22T17:35:17.527Z,40.17
2022-08-22T17:38:09.395Z,39.43
2022-08-22T17:41:01.607Z,38.33
2022-08-22T17:43:55.936Z,41.10
2022-08-22T17:46:47.205Z,38.37
2022-08-22T17:49:46.566Z,37.10
2022-08-22T17:52:35.814Z,40.77
2022-08-22T17:55:23.275Z,36.93
2022-08-22T17:58:13.691Z,33.40
2022-08-22T18:01:37.763Z,37.07
2022-08-22T18:04:28.573Z,40.63
2022-08-22T18:07:30.358Z,34.10
2022-08-22T18:10:23.369Z,37.33
2022-08-22T18:13:11.167Z,35.27
2022-08-22T18:15:58.783Z,43.10
2022-08-22T18:18:49.368Z,39.00
2022-08-22T18:21:36.664Z,35.17
2022-08-22T18:24:31.267Z,38.37
2022-08-22T18:27:34.153Z,45.70
2022-08-22T18:30:20.846Z,38.10
2022-08-22T18:33:09.025Z,39.77
2022-08-22T18:35:56.475Z,37.47
2022-08-22T18:38:50.675Z,49.07
2022-08-22T18:41:39.970Z,37.60
2022-08-22T18:44:29.833Z,36.83
2022-08-22T18:47:17.838Z,44.80
2022-08-22T18:50:03.882Z,41.93
2022-08-22T18:52:46.944Z,47.03
2022-08-22T18:55:56.217Z,46.40
2022-08-22T18:59:05.304Z,47.63
2022-08-22T19:02:01.160Z,42.17
2022-08-22T19:05:08.770Z,45.43
2022-08-22T19:08:19.322Z,37.40
2022-08-22T19:11:17.527Z,49.10
2022-08-22T19:14:25.607Z,39.73
2022-08-22T19:17:40.060Z,45.80
2022-08-22T19:20:47.009Z,44.73
2022-08-22T19:23:45.551Z,42.20
2022-08-22T19:26:43.893Z,41.03
2022-08-22T19:29:55.389Z,39.40
2022-08-22T19:33:03.847Z,35.97
2022-08-22T19:36:06.169Z,33.60
2022-08-22T19:39:00.573Z,29.20
2022-08-22T19:41:52.945Z,36.67
2022-08-22T19:44:42.306Z,35.00
2022-08-22T19:47:34.910Z,27.40
2022-08-22T19:50:30.876Z,35.17
2022-08-22T19:53:33.728Z,30.83
2022-08-22T19:56:30.024Z,37.63
2022-08-22T19:59:22.735Z,31.63
2022-08-22T20:02:20.914Z,33.00
2022-08-22T20:05:21.466Z,34.20
2022-08-22T20:08:22.764Z,29.97
2022-08-22T20:11:29.409Z,29.73
2022-08-22T20:14:30.693Z,31.37
2022-08-22T20:17:35.370Z,27.37
2022-08-22T20:20:57.149Z,32.60
2022-08-22T20:23:40.457Z,33.97
2022-08-22T20:26:23.661Z,33.83
2022-08-22T20:29:08.311Z,29.83
2022-08-22T20:31:58.064Z,36.47
2022-08-22T20:34:42.735Z,31.63
2022-08-22T20:37:56.164Z,29.83
2022-08-22T20:40:56.971Z,27.80
2022-08-22T20:43:45.508Z,31.90
2022-08-22T20:46:44.370Z,32.00
2022-08-22T20:49:33.940Z,29.60
2022-08-22T20:52:27.030Z,27.33
2022-08-22T20:55:15.799Z,25.13
2022-08-22T20:58:05.180Z,30.33
2022-08-22T21:00:50.860Z,30.00
2022-08-22T21:03:40.927Z,30.00
2022-08-22T21:06:32.506Z,31.10
2022-08-22T21:09:39.719Z,32.07
2022-08-22T21:12:26.371Z,34.33
2022-08-22T21:15:10.714Z,33.93
2022-08-22T21:17:53.823Z,37.27
2022-08-22T21:20:39.024Z,29.97
2022-08-22T21:23:22.246Z,30.27
2022-08-22T21:26:09.633Z,30.13
2022-08-22T21:29:00.016Z,35.77
2022-08-22T21:31:46.169Z,39.23
2022-08-22T21:34:32.721Z,29.10
2022-08-22T21:37:18.827Z,34.67
2022-08-22T21:40:07.946Z,34.00
2022-08-22T21:43:05.715Z,28.57
2022-08-22T21:45:50.209Z,35.60
2022-08-22T21:48:40.322Z,32.70
2022-08-22T21:51:25.572Z,36.53
2022-08-22T21:54:33.223Z,27.80
2022-08-22T21:57:35.790Z,33.70
2022-08-22T22:00:41.303Z,33.80
2022-08-22T22:03:38.840Z,27.63
2022-08-22T22:06:22.003Z,31.87
2022-08-22T22:09:05.191Z,25.83
2022-08-22T22:11:48.311Z,34.20
2022-08-22T22:14:31.424Z,29.77
2022-08-22T22:17:14.605Z,36.70
2022-08-22T22:19:59.088Z,37.87
2022-08-22T22:22:46.090Z,35.73
2022-08-22T22:25:40.157Z,30.00
2022-08-22T22:28:29.666Z,31.40
2022-08-22T22:31:12.784Z,36.93
2022-08-22T22:33:55.953Z,32.07
2022-08-22T22:36:41.955Z,32.77
2022-08-22T22:39:25.051Z,31.73
2022-08-22T22:42:08.759Z,35.13
2022-08-22T22:44:51.823Z,30.80
2022-08-22T22:47:36.363Z,36.63
2022-08-22T22:50:19.635Z,38.57
2022-08-22T22:53:04.150Z,37.47
2022-08-22T22:55:59.577Z,34.13
2022-08-22T22:58:44.064Z,32.07
2022-08-22T23:01:28.066Z,34.00
2022-08-22T23:04:11.057Z,34.27
2022-08-22T23:06:54.209Z,35.13
2022-08-22T23:09:44.565Z,38.80
2022-08-22T23:12:28.172Z,33.97
2022-08-22T23:15:12.486Z,39.00
2022-08-22T23:17:55.782Z,31.87
2022-08-22T23:20:38.914Z,34.93
2022-08-22T23:23:22.037Z,33.80
2022-08-22T23:26:06.995Z,33.93
2022-08-22T23:28:50.236Z,30.67
2022-08-22T23:31:35.658Z,32.80
2022-08-22T23:34:22.777Z,29.63
2022-08-22T23:37:08.815Z,28.93
2022-08-22T23:39:52.130Z,33.33
2022-08-22T23:42:36.985Z,39.00
2022-08-22T23:45:21.595Z,30.83
2022-08-22T23:48:05.109Z,35.63
2022-08-22T23:50:48.164Z,32.23
2022-08-22T23:53:31.344Z,34.20
2022-08-22T23:56:19.662Z,32.00
2022-08-22T23:59:08.147Z,34.17
